Time;durP1;ratioP1;P1;durP2;ratioP2;P2;SDS_P1;SDS_P2;PMS_P1;PMS_P2;Temp;Humidity;BMP_temperature;BMP_pressure;BME280_temperature;BME280_humidity;BME280_pressure;Samples;Min_cycle;Max_cycle;Signal;HPM_P1;HPM_P2
2021/09/18 00:00:15;;;;;;;1.37;0.70;;;14.60;99.90;;;;;;5132726;27;20317;-73
2021/09/18 00:02:42;;;;;;;0.90;0.57;;;14.70;99.90;;;;;;5132191;27;20748;-73
2021/09/18 00:05:10;;;;;;;1.50;0.77;;;14.70;99.90;;;;;;5132459;27;20201;-73
2021/09/18 00:07:36;;;;;;;0.97;0.80;;;14.60;99.90;;;;;;5132479;27;20254;-72
2021/09/18 00:10:04;;;;;;;0.87;0.87;;;14.50;99.90;;;;;;5132399;27;20325;-72
2021/09/18 00:12:30;;;;;;;1.17;0.63;;;14.40;99.90;;;;;;5132455;27;20205;-73
2021/09/18 00:14:59;;;;;;;2.10;0.63;;;14.30;99.90;;;;;;5132604;27;20240;-73
2021/09/18 00:17:26;;;;;;;1.27;0.40;;;14.40;99.90;;;;;;5132305;27;20209;-73
2021/09/18 00:19:53;;;;;;;1.70;0.70;;;14.30;99.90;;;;;;5132318;27;20216;-71
2021/09/18 00:22:20;;;;;;;1.40;0.50;;;14.30;99.90;;;;;;5132193;27;20277;-71
2021/09/18 00:24:46;;;;;;;0.50;0.50;;;14.30;99.90;;;;;;5132108;27;20226;-72
2021/09/18 00:27:13;;;;;;;0.60;0.60;;;14.40;99.90;;;;;;5112635;27;20242;-72
2021/09/18 00:29:39;;;;;;;0.97;0.63;;;14.40;99.90;;;;;;5110881;28;20700;-73
2021/09/18 00:32:07;;;;;;;0.80;0.77;;;14.40;99.90;;;;;;5111701;28;20235;-73
2021/09/18 00:34:34;;;;;;;0.80;0.70;;;14.30;99.90;;;;;;5111327;28;20258;-73
2021/09/18 00:37:01;;;;;;;1.90;0.60;;;14.40;99.90;;;;;;5111183;28;20672;-73
2021/09/18 00:39:27;;;;;;;0.80;0.80;;;14.30;99.90;;;;;;5111284;28;20202;-73
2021/09/18 00:41:54;;;;;;;1.13;0.57;;;14.30;99.90;;;;;;5111307;28;20600;-73
2021/09/18 00:44:21;;;;;;;0.67;0.67;;;14.30;99.90;;;;;;5111140;28;20210;-73
2021/09/18 00:46:50;;;;;;;1.40;0.57;;;14.30;99.90;;;;;;5111113;28;20225;-73
2021/09/18 00:49:18;;;;;;;0.70;0.70;;;14.30;99.90;;;;;;5110824;28;20230;-73
2021/09/18 00:51:45;;;;;;;0.90;0.90;;;14.30;99.90;;;;;;5110910;28;20241;-73
2021/09/18 00:54:13;;;;;;;0.90;0.90;;;14.20;99.90;;;;;;5110706;28;20653;-71
2021/09/18 00:56:40;;;;;;;0.87;0.77;;;14.30;99.90;;;;;;5125604;27;20258;-73
2021/09/18 00:59:07;;;;;;;2.57;1.00;;;14.20;99.90;;;;;;5130991;27;20233;-73
2021/09/18 01:01:34;;;;;;;0.63;0.63;;;14.30;99.90;;;;;;5131432;27;20241;-73
2021/09/18 01:04:01;;;;;;;1.10;1.00;;;14.30;99.90;;;;;;5131141;27;20656;-73
2021/09/18 01:06:29;;;;;;;0.97;0.70;;;14.30;99.90;;;;;;5131022;27;20649;-73
2021/09/18 01:08:58;;;;;;;1.17;0.80;;;14.30;99.90;;;;;;5130549;27;20314;-73
2021/09/18 01:11:26;;;;;;;0.70;0.67;;;14.30;99.90;;;;;;5131209;27;20242;-73
2021/09/18 01:13:52;;;;;;;0.60;0.60;;;14.20;99.90;;;;;;5127237;27;20210;-73
2021/09/18 01:16:20;;;;;;;0.63;0.50;;;14.30;99.90;;;;;;5110324;28;20290;-73
2021/09/18 01:18:46;;;;;;;1.43;0.73;;;14.30;99.90;;;;;;5110470;28;20262;-73
2021/09/18 01:21:14;;;;;;;3.37;0.53;;;14.30;99.90;;;;;;5110538;28;20214;-73
2021/09/18 01:23:42;;;;;;;0.77;0.77;;;14.30;99.90;;;;;;5109991;28;20202;-73
2021/09/18 01:26:09;;;;;;;1.27;0.67;;;14.30;99.90;;;;;;5120705;27;20292;-73
2021/09/18 01:28:36;;;;;;;4.10;0.77;;;14.30;99.90;;;;;;5130620;27;20952;-73
2021/09/18 01:31:03;;;;;;;1.33;0.90;;;14.30;99.90;;;;;;5130849;27;20317;-73
2021/09/18 01:33:29;;;;;;;0.97;0.70;;;14.20;99.90;;;;;;5130672;27;20233;-72
2021/09/18 01:35:56;;;;;;;0.70;0.70;;;14.30;99.90;;;;;;5130869;27;20202;-72
2021/09/18 01:38:23;;;;;;;1.30;0.87;;;14.20;99.90;;;;;;5130833;27;20233;-73
2021/09/18 01:40:50;;;;;;;1.03;0.90;;;14.20;99.90;;;;;;5130695;27;20201;-72
2021/09/18 01:43:18;;;;;;;1.53;0.80;;;14.20;99.90;;;;;;5130708;27;20231;-72
2021/09/18 01:45:45;;;;;;;0.87;0.73;;;14.20;99.90;;;;;;5130355;27;20225;-72
2021/09/18 01:48:13;;;;;;;2.37;1.07;;;14.10;99.90;;;;;;5130623;27;20228;-71
2021/09/18 01:50:45;;;;;;;1.07;0.80;;;14.10;99.90;;;;;;5130076;27;20361;-73
2021/09/18 01:53:13;;;;;;;2.50;1.23;;;14.10;99.90;;;;;;5130231;27;20204;-74
2021/09/18 01:55:40;;;;;;;1.17;0.70;;;14.20;99.90;;;;;;5123258;27;20206;-74
2021/09/18 01:58:09;;;;;;;0.90;0.90;;;14.20;99.90;;;;;;5109307;27;20226;-73
2021/09/18 02:00:39;;;;;;;1.33;0.80;;;14.10;99.90;;;;;;5109532;28;20246;-73
2021/09/18 02:03:05;;;;;;;1.00;0.80;;;14.00;99.90;;;;;;5109840;28;20202;-73
2021/09/18 02:05:32;;;;;;;0.60;0.60;;;14.00;99.90;;;;;;5109344;28;20221;-71
2021/09/18 02:07:58;;;;;;;1.60;0.90;;;13.90;99.90;;;;;;5109736;28;20251;-72
2021/09/18 02:10:28;;;;;;;0.93;0.87;;;13.90;99.90;;;;;;5109106;27;20277;-72
2021/09/18 02:12:56;;;;;;;2.03;1.07;;;13.90;99.90;;;;;;5109263;28;20604;-72
2021/09/18 02:15:26;;;;;;;0.83;0.80;;;13.90;99.90;;;;;;5109181;28;20633;-72
2021/09/18 02:17:53;;;;;;;2.27;0.90;;;14.00;99.90;;;;;;5109436;28;20259;-71
2021/09/18 02:20:22;;;;;;;1.33;0.80;;;13.90;99.90;;;;;;5108606;28;20263;-72
2021/09/18 02:22:49;;;;;;;1.23;0.90;;;14.00;99.90;;;;;;5109250;28;20210;-72
2021/09/18 02:25:17;;;;;;;0.80;0.70;;;14.00;99.90;;;;;;5115182;27;20236;-72
2021/09/18 02:27:44;;;;;;;1.00;1.00;;;13.90;99.90;;;;;;5150523;27;20230;-73
2021/09/18 02:30:13;;;;;;;1.27;0.87;;;13.90;99.90;;;;;;5150492;27;20268;-74
2021/09/18 02:32:41;;;;;;;1.33;1.00;;;13.90;99.90;;;;;;5150380;27;20205;-73
2021/09/18 02:35:11;;;;;;;1.13;0.87;;;13.90;99.90;;;;;;5150150;27;20201;-73
2021/09/18 02:37:38;;;;;;;1.27;1.10;;;13.90;99.90;;;;;;5150325;27;20201;-73
2021/09/18 02:40:09;;;;;;;1.30;1.00;;;13.90;99.90;;;;;;5150141;27;20258;-73
2021/09/18 02:42:37;;;;;;;1.93;0.80;;;13.90;99.90;;;;;;5146167;27;20193;-73
2021/09/18 02:45:04;;;;;;;1.17;0.80;;;13.90;99.90;;;;;;5109015;28;20206;-72
2021/09/18 02:47:31;;;;;;;0.90;0.90;;;14.00;99.90;;;;;;5108517;28;20957;-72
2021/09/18 02:49:59;;;;;;;1.10;0.73;;;14.00;99.90;;;;;;5108627;28;20287;-72
2021/09/18 02:52:26;;;;;;;1.13;1.03;;;14.00;99.90;;;;;;5108934;28;21095;-72
2021/09/18 02:54:52;;;;;;;1.90;1.00;;;13.90;99.90;;;;;;5108748;28;20206;-72
2021/09/18 02:57:19;;;;;;;0.93;0.70;;;14.10;99.90;;;;;;5108465;28;20723;-72
2021/09/18 02:59:45;;;;;;;1.30;1.20;;;14.10;99.90;;;;;;5108449;28;20247;-72
2021/09/18 03:02:12;;;;;;;1.80;0.90;;;14.00;99.90;;;;;;5108456;28;20245;-72
2021/09/18 03:04:39;;;;;;;2.00;0.77;;;14.10;99.90;;;;;;5108393;28;20237;-72
2021/09/18 03:07:06;;;;;;;5.13;1.30;;;14.10;99.90;;;;;;5108786;28;20237;-72
2021/09/18 03:09:33;;;;;;;0.80;0.80;;;14.00;99.90;;;;;;5108308;28;20229;-72
2021/09/18 03:12:00;;;;;;;1.33;0.93;;;13.90;99.90;;;;;;5108831;28;20275;-72
2021/09/18 03:14:26;;;;;;;2.40;1.10;;;13.90;99.90;;;;;;5108535;28;20209;-72
2021/09/18 03:16:53;;;;;;;1.07;0.97;;;13.90;99.90;;;;;;5108754;28;20234;-72
2021/09/18 03:19:21;;;;;;;1.27;1.17;;;13.90;99.90;;;;;;5108640;28;20244;-72
2021/09/18 03:21:48;;;;;;;1.37;1.17;;;13.90;99.90;;;;;;5108503;28;20282;-72
2021/09/18 03:24:16;;;;;;;1.10;1.00;;;13.90;99.90;;;;;;5108384;28;20261;-72
2021/09/18 03:26:43;;;;;;;1.47;1.10;;;13.90;99.90;;;;;;5108402;28;20205;-72
2021/09/18 03:29:11;;;;;;;1.70;1.10;;;13.80;99.90;;;;;;5108412;28;20293;-72
2021/09/18 03:31:37;;;;;;;1.10;1.10;;;13.80;99.90;;;;;;5110284;28;20261;-72
2021/09/18 03:34:04;;;;;;;2.07;1.30;;;13.80;99.90;;;;;;5112615;28;20210;-72
2021/09/18 03:36:31;;;;;;;2.87;1.13;;;13.80;99.90;;;;;;5112830;27;20259;-72
2021/09/18 03:38:58;;;;;;;1.37;1.20;;;13.90;99.90;;;;;;5112732;28;20202;-72
2021/09/18 03:41:26;;;;;;;1.00;0.90;;;13.80;99.90;;;;;;5112623;28;20232;-72
2021/09/18 03:43:53;;;;;;;2.67;1.43;;;13.90;99.90;;;;;;5112135;28;20233;-72
2021/09/18 03:46:19;;;;;;;1.87;1.33;;;13.80;99.90;;;;;;5112333;28;20234;-72
2021/09/18 03:48:46;;;;;;;1.47;1.33;;;13.90;99.90;;;;;;5112054;28;20261;-73
2021/09/18 03:51:12;;;;;;;1.30;1.20;;;13.80;99.90;;;;;;5111866;28;20776;-72
2021/09/18 03:53:39;;;;;;;1.83;1.50;;;13.90;99.90;;;;;;5112449;28;20283;-73
2021/09/18 03:56:06;;;;;;;3.83;1.60;;;13.90;99.90;;;;;;5112410;28;20259;-72
2021/09/18 03:58:34;;;;;;;1.90;1.80;;;13.80;99.90;;;;;;5111851;28;20329;-72
2021/09/18 04:01:00;;;;;;;1.63;1.53;;;13.80;99.90;;;;;;5112053;28;20237;-73
2021/09/18 04:03:27;;;;;;;2.70;1.50;;;13.80;99.90;;;;;;5112328;28;20535;-72
2021/09/18 04:05:54;;;;;;;3.07;1.80;;;13.80;99.90;;;;;;5112093;28;20206;-72
2021/09/18 04:08:20;;;;;;;1.73;1.40;;;13.80;99.90;;;;;;5112021;28;20245;-72
2021/09/18 04:10:47;;;;;;;2.00;1.90;;;13.80;99.90;;;;;;5111680;28;20299;-73
2021/09/18 04:13:14;;;;;;;2.10;1.97;;;13.80;99.90;;;;;;5111605;28;20736;-73
2021/09/18 04:15:41;;;;;;;2.17;1.87;;;13.80;99.90;;;;;;5111467;28;20679;-73
2021/09/18 04:18:08;;;;;;;2.30;1.90;;;13.80;99.90;;;;;;5111767;28;20266;-73
2021/09/18 04:20:35;;;;;;;2.77;2.50;;;13.90;99.90;;;;;;5111519;28;20206;-73
2021/09/18 04:23:01;;;;;;;2.50;2.27;;;13.70;99.90;;;;;;5111801;28;20213;-72
2021/09/18 04:25:28;;;;;;;3.03;2.20;;;13.60;99.90;;;;;;5111312;28;20626;-73
2021/09/18 04:27:55;;;;;;;2.37;2.17;;;13.60;99.90;;;;;;5111441;28;20621;-73
2021/09/18 04:30:22;;;;;;;5.40;2.17;;;13.60;99.90;;;;;;5111457;28;20307;-73
2021/09/18 04:32:49;;;;;;;4.73;3.07;;;13.70;99.90;;;;;;5111497;28;20206;-73
2021/09/18 04:35:16;;;;;;;2.93;2.73;;;13.80;99.90;;;;;;5111074;28;20248;-73
2021/09/18 04:37:43;;;;;;;3.70;3.47;;;13.60;99.90;;;;;;5111198;28;20229;-73
2021/09/18 04:40:10;;;;;;;3.70;3.30;;;13.50;99.90;;;;;;5111328;28;20199;-73
2021/09/18 04:42:36;;;;;;;6.77;5.17;;;13.50;99.90;;;;;;5110474;28;20202;-72
2021/09/18 04:45:04;;;;;;;5.67;3.80;;;13.40;99.90;;;;;;5111202;28;20780;-73
2021/09/18 04:47:30;;;;;;;4.20;3.63;;;13.40;99.90;;;;;;5110925;28;20206;-73
2021/09/18 04:49:58;;;;;;;6.33;4.47;;;13.40;99.90;;;;;;5110791;28;20230;-72
2021/09/18 04:52:25;;;;;;;5.87;3.80;;;13.40;99.90;;;;;;5111080;28;20270;-73
2021/09/18 04:54:53;;;;;;;3.90;3.60;;;13.40;99.90;;;;;;5110862;28;20210;-74
2021/09/18 04:57:19;;;;;;;4.03;3.73;;;13.50;99.90;;;;;;5110914;28;20238;-72
2021/09/18 04:59:46;;;;;;;4.70;4.37;;;13.50;99.90;;;;;;5110963;28;20438;-72
2021/09/18 05:02:13;;;;;;;4.27;3.90;;;13.50;99.90;;;;;;5111219;28;20206;-72
2021/09/18 05:04:39;;;;;;;4.90;3.93;;;13.60;99.90;;;;;;5110689;28;20206;-72
2021/09/18 05:07:07;;;;;;;4.63;4.30;;;13.50;99.90;;;;;;5110813;28;20202;-72
2021/09/18 05:09:34;;;;;;;5.00;4.50;;;13.50;99.90;;;;;;5110939;28;20238;-72
2021/09/18 05:12:00;;;;;;;5.30;4.90;;;13.50;99.90;;;;;;5110486;28;20314;-72
2021/09/18 05:14:27;;;;;;;5.07;4.67;;;13.40;99.90;;;;;;5110897;28;20622;-72
2021/09/18 05:16:53;;;;;;;5.60;5.00;;;13.50;99.90;;;;;;5110558;28;20247;-72
2021/09/18 05:19:20;;;;;;;6.47;5.40;;;13.50;99.90;;;;;;5110407;28;20400;-72
2021/09/18 05:21:47;;;;;;;5.83;5.00;;;13.50;99.90;;;;;;5110056;28;20213;-72
2021/09/18 05:24:15;;;;;;;5.73;5.23;;;13.50;99.90;;;;;;5110671;28;20256;-72
2021/09/18 05:26:41;;;;;;;5.63;5.00;;;13.40;99.90;;;;;;5110290;28;20233;-74
2021/09/18 05:29:08;;;;;;;5.50;5.10;;;13.40;99.90;;;;;;5110340;28;20283;-74
2021/09/18 05:31:35;;;;;;;5.80;5.30;;;13.40;99.90;;;;;;5110472;28;20633;-74
2021/09/18 05:34:02;;;;;;;6.70;6.00;;;13.30;99.90;;;;;;5110126;28;20656;-74
2021/09/18 05:36:28;;;;;;;5.80;5.40;;;13.30;99.90;;;;;;5110411;28;20575;-74
2021/09/18 05:38:55;;;;;;;5.07;4.57;;;13.20;99.90;;;;;;5110346;28;20202;-74
2021/09/18 05:41:23;;;;;;;5.07;4.70;;;13.20;99.90;;;;;;5110250;28;20202;-74
2021/09/18 05:43:49;;;;;;;5.17;4.67;;;13.30;99.90;;;;;;5110177;28;20240;-73
2021/09/18 05:46:16;;;;;;;5.30;4.87;;;13.20;99.90;;;;;;5110259;28;20279;-73
2021/09/18 05:48:42;;;;;;;4.67;4.30;;;13.20;99.90;;;;;;5109992;28;20271;-73
2021/09/18 05:51:09;;;;;;;5.17;4.73;;;13.30;99.90;;;;;;5110058;28;20254;-73
2021/09/18 05:53:36;;;;;;;4.20;3.93;;;13.40;99.90;;;;;;5109947;28;20278;-72
2021/09/18 05:56:03;;;;;;;4.33;3.90;;;13.40;99.90;;;;;;5109498;28;20685;-72
2021/09/18 05:58:31;;;;;;;5.80;4.10;;;13.50;99.90;;;;;;5109535;28;20294;-72
2021/09/18 06:00:58;;;;;;;4.10;3.80;;;13.50;99.90;;;;;;5109781;28;20257;-72
2021/09/18 06:03:24;;;;;;;3.77;3.57;;;13.50;99.90;;;;;;5109603;27;20737;-72
2021/09/18 06:05:51;;;;;;;3.80;3.60;;;13.50;99.90;;;;;;5109751;28;20241;-75
2021/09/18 06:08:18;;;;;;;5.40;3.97;;;13.60;99.90;;;;;;5109542;28;20233;-73
2021/09/18 06:10:44;;;;;;;4.03;3.77;;;13.50;99.90;;;;;;5109116;28;20622;-73
2021/09/18 06:13:13;;;;;;;4.50;4.10;;;13.50;99.90;;;;;;5109821;28;20233;-73
2021/09/18 06:15:41;;;;;;;4.30;4.00;;;13.50;99.90;;;;;;5109365;27;20206;-73
2021/09/18 06:18:08;;;;;;;4.07;3.87;;;13.50;99.90;;;;;;5125487;27;20210;-73
2021/09/18 06:20:35;;;;;;;4.03;3.77;;;13.50;99.90;;;;;;5127605;27;20237;-73
2021/09/18 06:23:01;;;;;;;4.10;3.57;;;13.50;99.90;;;;;;5127797;27;20229;-73
2021/09/18 06:25:28;;;;;;;4.37;4.00;;;13.60;99.90;;;;;;5127739;27;20298;-73
2021/09/18 06:27:54;;;;;;;4.30;3.80;;;13.60;99.90;;;;;;5127345;27;20728;-73
2021/09/18 06:30:21;;;;;;;5.27;4.87;;;13.70;99.90;;;;;;5127915;27;20262;-73
2021/09/18 06:32:49;;;;;;;5.53;5.13;;;13.80;99.90;;;;;;5127113;27;20345;-73
2021/09/18 06:35:16;;;;;;;5.00;4.60;;;13.80;99.90;;;;;;5127420;27;20590;-73
2021/09/18 06:37:44;;;;;;;4.97;4.57;;;13.80;99.90;;;;;;5127179;27;20237;-73
2021/09/18 06:40:12;;;;;;;4.47;4.17;;;13.80;99.90;;;;;;5127010;27;20201;-74
2021/09/18 06:42:39;;;;;;;4.27;3.90;;;13.90;99.90;;;;;;5126828;27;20270;-73
2021/09/18 06:45:07;;;;;;;4.30;4.00;;;14.00;99.90;;;;;;5127116;27;20229;-73
2021/09/18 06:47:33;;;;;;;4.37;4.07;;;14.10;99.90;;;;;;5126640;27;20804;-73
2021/09/18 06:50:02;;;;;;;4.27;3.97;;;14.20;99.90;;;;;;5126915;27;20266;-73
2021/09/18 06:52:29;;;;;;;4.43;4.13;;;14.20;99.90;;;;;;5126333;27;20233;-73
2021/09/18 06:54:55;;;;;;;4.70;4.40;;;14.10;99.90;;;;;;5126478;27;20604;-73
2021/09/18 06:57:22;;;;;;;4.73;4.33;;;14.10;99.90;;;;;;5126338;27;20240;-74
2021/09/18 06:59:49;;;;;;;4.47;4.17;;;14.20;99.90;;;;;;5127278;27;20205;-74
2021/09/18 07:02:15;;;;;;;4.77;4.40;;;14.20;99.90;;;;;;5127369;27;20354;-74
2021/09/18 07:04:42;;;;;;;4.67;4.27;;;14.30;99.90;;;;;;5127094;27;20343;-73
2021/09/18 07:07:10;;;;;;;4.00;3.80;;;14.30;99.90;;;;;;5126796;27;21005;-74
2021/09/18 07:09:39;;;;;;;4.30;4.00;;;14.40;99.90;;;;;;5127190;27;20717;-74
2021/09/18 07:12:06;;;;;;;4.80;4.40;;;14.40;99.90;;;;;;5126203;27;20688;-75
2021/09/18 07:14:32;;;;;;;5.03;4.63;;;14.50;99.90;;;;;;5126996;28;20403;-74
2021/09/18 07:17:00;;;;;;;5.30;4.90;;;14.60;99.90;;;;;;5126487;27;20296;-75
2021/09/18 07:19:26;;;;;;;5.90;5.47;;;14.60;99.90;;;;;;5126715;28;20201;-74
2021/09/18 07:21:53;;;;;;;5.30;4.73;;;14.70;99.90;;;;;;5119763;27;20633;-74
2021/09/18 07:24:21;;;;;;;4.83;4.53;;;14.70;99.90;;;;;;5123247;27;20309;-73
2021/09/18 07:26:47;;;;;;;4.47;4.17;;;14.80;99.90;;;;;;5125701;28;20236;-74
2021/09/18 07:29:14;;;;;;;5.13;4.73;;;14.80;99.90;;;;;;5125244;27;20209;-73
2021/09/18 07:31:40;;;;;;;4.83;4.43;;;14.90;99.90;;;;;;5125100;28;20743;-73
2021/09/18 07:34:07;;;;;;;5.20;4.60;;;14.90;99.90;;;;;;5125677;27;20224;-72
2021/09/18 07:36:34;;;;;;;5.93;4.53;;;15.00;99.90;;;;;;5124880;28;20286;-71
2021/09/18 07:39:00;;;;;;;5.03;4.57;;;15.00;99.90;;;;;;5125661;27;20232;-73
2021/09/18 07:41:28;;;;;;;5.27;4.77;;;15.00;99.90;;;;;;5125990;27;20259;-73
2021/09/18 07:44:00;;;;;;;5.43;5.03;;;15.10;99.90;;;;;;5124800;28;20731;-73
2021/09/18 07:46:27;;;;;;;4.97;4.57;;;15.10;99.90;;;;;;5125179;28;20225;-72
2021/09/18 07:48:53;;;;;;;4.40;4.00;;;15.10;99.90;;;;;;5125560;27;20267;-73
2021/09/18 07:51:20;;;;;;;4.60;4.30;;;15.20;99.90;;;;;;5125888;27;20700;-72
2021/09/18 07:53:46;;;;;;;4.87;4.43;;;15.10;99.90;;;;;;5126181;27;20541;-73
2021/09/18 07:56:13;;;;;;;4.20;3.90;;;15.20;99.90;;;;;;5126066;28;20209;-73
2021/09/18 07:58:41;;;;;;;4.23;3.70;;;15.40;99.90;;;;;;5125217;28;20286;-72
2021/09/18 08:01:07;;;;;;;5.03;3.33;;;15.50;99.90;;;;;;5125671;27;20298;-72
2021/09/18 08:03:34;;;;;;;3.70;3.10;;;15.70;99.90;;;;;;5125431;27;20679;-73
2021/09/18 08:06:01;;;;;;;3.53;3.13;;;15.80;99.90;;;;;;5125057;28;20248;-73
2021/09/18 08:08:27;;;;;;;3.43;3.00;;;15.90;99.90;;;;;;5125609;27;20348;-73
2021/09/18 08:10:54;;;;;;;2.67;2.53;;;16.00;99.90;;;;;;5125013;27;20237;-73
2021/09/18 08:13:21;;;;;;;3.03;2.73;;;16.10;99.90;;;;;;5124896;28;20707;-72
2021/09/18 08:15:49;;;;;;;2.30;2.17;;;16.10;99.90;;;;;;5124946;27;20233;-73
2021/09/18 08:18:15;;;;;;;2.53;2.17;;;16.20;99.90;;;;;;5126529;27;20241;-73
2021/09/18 08:20:42;;;;;;;2.10;1.80;;;16.20;99.90;;;;;;5129001;27;20236;-72
2021/09/18 08:23:09;;;;;;;3.23;1.90;;;16.20;99.90;;;;;;5129001;27;20301;-73
2021/09/18 08:25:35;;;;;;;2.47;1.93;;;16.20;99.90;;;;;;5128678;27;20205;-73
2021/09/18 08:28:02;;;;;;;1.70;1.60;;;16.20;99.90;;;;;;5128925;27;20266;-72
2021/09/18 08:30:28;;;;;;;4.33;1.60;;;16.30;99.90;;;;;;5128974;27;20251;-72
2021/09/18 08:32:56;;;;;;;2.50;1.87;;;16.30;99.90;;;;;;5128732;27;20257;-73
2021/09/18 08:35:23;;;;;;;1.53;1.50;;;16.30;99.90;;;;;;5128824;27;20210;-72
2021/09/18 08:37:49;;;;;;;2.00;1.40;;;16.40;99.90;;;;;;5128449;27;20903;-72
2021/09/18 08:40:16;;;;;;;1.97;1.50;;;16.40;99.90;;;;;;5129134;27;20492;-72
2021/09/18 08:42:43;;;;;;;1.67;1.50;;;16.40;99.90;;;;;;5128756;27;20676;-72
2021/09/18 08:45:13;;;;;;;4.17;1.50;;;16.40;99.90;;;;;;5129097;27;20240;-72
2021/09/18 08:47:41;;;;;;;2.20;1.37;;;16.50;99.90;;;;;;5128669;27;20257;-73
2021/09/18 08:50:13;;;;;;;1.70;1.60;;;16.50;99.90;;;;;;5128529;27;20713;-73
2021/09/18 08:52:42;;;;;;;1.93;1.77;;;16.60;99.90;;;;;;5128670;27;20242;-72
2021/09/18 08:55:09;;;;;;;1.47;1.37;;;16.80;99.90;;;;;;5128580;27;20565;-72
2021/09/18 08:57:35;;;;;;;1.70;1.60;;;16.80;99.90;;;;;;5128553;27;20273;-73
2021/09/18 09:00:02;;;;;;;1.50;1.40;;;16.90;99.90;;;;;;5128341;27;20244;-73
2021/09/18 09:02:30;;;;;;;1.50;1.20;;;16.90;99.90;;;;;;5128587;27;20732;-73
2021/09/18 09:05:07;;;;;;;0.73;0.73;;;17.00;99.90;;;;;;5128297;27;20228;-73
2021/09/18 09:07:35;;;;;;;2.40;1.03;;;17.10;99.90;;;;;;5128543;27;20221;-73
2021/09/18 09:10:05;;;;;;;1.07;0.90;;;17.20;99.90;;;;;;5128874;27;20262;-73
2021/09/18 09:12:35;;;;;;;1.60;1.17;;;17.30;99.90;;;;;;5127726;27;20582;-73
2021/09/18 09:15:04;;;;;;;1.03;1.00;;;17.30;99.90;;;;;;5127859;27;20205;-73
2021/09/18 09:17:33;;;;;;;0.90;0.80;;;17.40;99.90;;;;;;5127918;27;20205;-73
2021/09/18 09:20:00;;;;;;;1.23;0.70;;;17.40;99.90;;;;;;5127646;27;20638;-73
2021/09/18 09:22:43;;;;;;;1.93;1.00;;;17.30;99.90;;;;;;5108828;27;20256;-73
2021/09/18 09:25:30;;;;;;;1.80;0.90;;;17.40;99.90;;;;;;5107034;28;20194;-73
2021/09/18 09:28:00;;;;;;;1.23;0.80;;;17.30;99.90;;;;;;5107537;28;20203;-73
2021/09/18 09:30:28;;;;;;;2.50;0.80;;;17.30;99.90;;;;;;5107630;28;20202;-73
2021/09/18 09:32:55;;;;;;;0.67;0.60;;;17.30;99.90;;;;;;5107565;28;20269;-73
2021/09/18 09:35:22;;;;;;;0.50;0.50;;;17.20;99.90;;;;;;5107703;28;20210;-73
2021/09/18 09:37:54;;;;;;;1.57;0.67;;;17.20;99.90;;;;;;5107691;28;20212;-73
2021/09/18 09:40:36;;;;;;;0.33;0.30;;;17.10;99.90;;;;;;5107138;28;20676;-73
2021/09/18 09:43:03;;;;;;;0.60;0.43;;;17.10;99.90;;;;;;5107330;28;20543;-73
2021/09/18 09:45:30;;;;;;;2.30;0.67;;;17.10;99.90;;;;;;5106872;28;20743;-73
2021/09/18 09:48:08;;;;;;;0.80;0.60;;;17.10;99.90;;;;;;5106445;28;20279;-73
2021/09/18 09:50:36;;;;;;;3.90;1.00;;;17.10;99.90;;;;;;5106196;28;20279;-73
2021/09/18 09:53:05;;;;;;;0.60;0.50;;;17.10;99.90;;;;;;5106590;28;20291;-74
2021/09/18 09:55:36;;;;;;;1.77;0.97;;;17.00;99.90;;;;;;5107037;28;20202;-74
2021/09/18 09:58:05;;;;;;;3.53;0.83;;;17.00;99.90;;;;;;5106160;28;20249;-73
2021/09/18 10:00:43;;;;;;;0.50;0.50;;;17.00;99.90;;;;;;5124590;27;20267;-74
2021/09/18 10:03:10;;;;;;;0.70;0.70;;;17.00;99.90;;;;;;5127143;27;20185;-73
2021/09/18 10:05:38;;;;;;;1.90;0.90;;;17.10;99.90;;;;;;5126979;27;20273;-73
2021/09/18 10:08:06;;;;;;;0.70;0.70;;;17.10;99.90;;;;;;5126506;27;20216;-73
2021/09/18 10:10:34;;;;;;;0.60;0.60;;;17.20;99.90;;;;;;5126534;27;20205;-73
2021/09/18 10:13:01;;;;;;;3.13;1.00;;;17.20;99.90;;;;;;5127076;27;20294;-74
2021/09/18 10:15:30;;;;;;;0.80;0.70;;;17.20;99.90;;;;;;5127004;27;20807;-74
2021/09/18 10:18:00;;;;;;;1.57;0.50;;;17.40;99.90;;;;;;5127053;27;20297;-73
2021/09/18 10:23:18;;;;;;;3.90;0.73;;;17.80;99.90;;;;;;5122959;27;20668;-73
2021/09/18 10:25:49;;;;;;;0.60;0.47;;;18.00;99.90;;;;;;5126853;27;20619;-73
2021/09/18 10:28:18;;;;;;;1.03;0.57;;;18.20;99.90;;;;;;5127013;27;20235;-74
2021/09/18 10:30:47;;;;;;;0.70;0.70;;;18.30;99.90;;;;;;5126929;27;20266;-73
2021/09/18 10:33:35;;;;;;;1.43;0.60;;;18.20;99.90;;;;;;5126579;27;20316;-73
2021/09/18 10:36:04;;;;;;;0.70;0.60;;;18.00;99.90;;;;;;5126212;27;20625;-74
2021/09/18 10:38:34;;;;;;;0.40;0.40;;;17.90;99.90;;;;;;5126482;27;20201;-74
2021/09/18 10:41:04;;;;;;;0.70;0.70;;;17.80;99.90;;;;;;5125899;27;20213;-73
2021/09/18 10:43:33;;;;;;;0.30;0.30;;;17.90;99.90;;;;;;5126810;27;20225;-74
2021/09/18 10:46:00;;;;;;;1.00;0.57;;;18.00;99.90;;;;;;5126247;27;20209;-73
2021/09/18 10:48:46;;;;;;;1.37;0.40;;;18.10;99.90;;;;;;5126150;27;20309;-73
2021/09/18 10:51:35;;;;;;;0.60;0.47;;;18.30;99.90;;;;;;5126235;27;20201;-73
2021/09/18 10:54:05;;;;;;;0.50;0.50;;;18.50;99.90;;;;;;5125931;27;20221;-73
2021/09/18 10:56:56;;;;;;;0.73;0.40;;;18.50;99.90;;;;;;5126104;27;20246;-74
2021/09/18 10:59:41;;;;;;;0.50;0.40;;;18.60;99.90;;;;;;5125817;27;20205;-73
2021/09/18 11:02:45;;;;;;;0.20;0.20;;;18.70;99.90;;;;;;5126354;27;20259;-73
2021/09/18 11:05:46;;;;;;;1.07;0.40;;;18.80;99.90;;;;;;5125948;27;20197;-73
2021/09/18 11:08:35;;;;;;;0.30;0.23;;;18.80;99.90;;;;;;5125826;27;20556;-73
2021/09/18 11:11:09;;;;;;;0.50;0.50;;;18.70;99.90;;;;;;5125965;27;20220;-73
2021/09/18 11:13:38;;;;;;;0.57;0.30;;;18.70;99.90;;;;;;5126014;27;20242;-74
2021/09/18 11:16:08;;;;;;;0.33;0.33;;;18.50;99.90;;;;;;5125912;28;20201;-73
2021/09/18 11:18:37;;;;;;;0.63;0.40;;;18.40;99.90;;;;;;5126193;27;20205;-73
2021/09/18 11:21:12;;;;;;;0.40;0.30;;;18.30;99.90;;;;;;5126030;27;20258;-74
2021/09/18 11:23:40;;;;;;;0.30;0.30;;;18.30;99.90;;;;;;5125879;28;20721;-74
2021/09/18 11:26:45;;;;;;;0.40;0.30;;;18.30;99.90;;;;;;5125919;28;20290;-73
2021/09/18 11:29:24;;;;;;;0.80;0.60;;;18.30;99.90;;;;;;5125365;27;20578;-73
2021/09/18 11:32:21;;;;;;;0.60;0.60;;;18.40;99.90;;;;;;5125196;28;20668;-72
2021/09/18 11:34:50;;;;;;;0.43;0.40;;;18.40;99.90;;;;;;5125497;27;20189;-73
2021/09/18 11:37:26;;;;;;;0.87;0.73;;;18.40;99.90;;;;;;5113591;27;20233;-73
2021/09/18 11:39:59;;;;;;;0.57;0.30;;;18.50;99.90;;;;;;5122828;28;20201;-73
2021/09/18 11:42:30;;;;;;;0.43;0.30;;;18.50;99.90;;;;;;5111481;28;20190;-73
2021/09/18 11:45:01;;;;;;;0.40;0.30;;;18.60;99.90;;;;;;5113119;28;21135;-73
2021/09/18 11:47:31;;;;;;;1.70;0.60;;;18.70;99.90;;;;;;5105250;28;20230;-73
2021/09/18 11:49:58;;;;;;;0.50;0.50;;;18.60;99.90;;;;;;5120242;28;20246;-75
2021/09/18 11:52:37;;;;;;;0.70;0.63;;;18.50;99.90;;;;;;5115144;27;20202;-74
2021/09/18 11:55:07;;;;;;;1.33;0.80;;;18.40;99.90;;;;;;5129912;27;20204;-73
2021/09/18 11:57:35;;;;;;;0.80;0.63;;;18.30;99.90;;;;;;5129867;27;20234;-73
2021/09/18 12:00:16;;;;;;;0.70;0.50;;;18.00;99.90;;;;;;5129613;27;20209;-74
2021/09/18 12:02:43;;;;;;;0.50;0.50;;;17.80;99.90;;;;;;5129088;27;20660;-73
2021/09/18 12:05:17;;;;;;;0.87;0.83;;;17.60;99.90;;;;;;5129623;27;20683;-73
2021/09/18 12:07:47;;;;;;;0.60;0.60;;;17.40;99.90;;;;;;5129699;27;20189;-73
2021/09/18 12:10:15;;;;;;;1.17;0.90;;;17.30;99.90;;;;;;5129662;27;20266;-73
2021/09/18 12:12:45;;;;;;;2.10;0.93;;;17.20;99.90;;;;;;5129446;27;20337;-73
2021/09/18 12:15:12;;;;;;;0.90;0.90;;;17.10;99.90;;;;;;5129647;27;20241;-73
2021/09/18 12:17:40;;;;;;;0.90;0.90;;;17.10;99.90;;;;;;5129412;27;20210;-73
2021/09/18 12:20:10;;;;;;;1.23;1.10;;;17.20;99.90;;;;;;5129547;27;20233;-73
2021/09/18 12:22:37;;;;;;;0.90;0.90;;;17.20;99.90;;;;;;5129603;27;20230;-73
2021/09/18 12:25:05;;;;;;;1.07;0.97;;;17.20;99.90;;;;;;5129729;27;20202;-73
2021/09/18 12:27:33;;;;;;;1.13;1.03;;;17.20;99.90;;;;;;5129528;27;20250;-74
2021/09/18 12:30:06;;;;;;;1.27;1.17;;;17.20;99.90;;;;;;5129348;27;20216;-73
2021/09/18 12:32:33;;;;;;;2.00;1.40;;;17.20;99.90;;;;;;5129572;27;20595;-73
2021/09/18 12:35:06;;;;;;;1.30;1.20;;;17.10;99.90;;;;;;5129535;27;20237;-73
2021/09/18 12:37:36;;;;;;;1.70;1.60;;;17.10;99.90;;;;;;5129674;27;20258;-73
2021/09/18 12:40:19;;;;;;;3.63;1.50;;;17.10;99.90;;;;;;5129226;27;20205;-73
2021/09/18 12:42:46;;;;;;;2.60;1.70;;;17.10;99.90;;;;;;5129035;27;20193;-73
2021/09/18 12:45:28;;;;;;;2.00;1.90;;;17.00;99.90;;;;;;5129150;27;20252;-73
2021/09/18 12:48:21;;;;;;;2.87;2.23;;;17.00;99.90;;;;;;5128671;27;20715;-73
2021/09/18 12:50:54;;;;;;;3.50;2.60;;;17.00;99.90;;;;;;5129062;27;20198;-73
2021/09/18 12:53:23;;;;;;;2.50;2.30;;;17.00;99.90;;;;;;5129092;27;20325;-73
2021/09/18 12:56:09;;;;;;;2.40;2.30;;;17.10;99.90;;;;;;5128833;27;20205;-73
2021/09/18 12:58:36;;;;;;;2.77;2.50;;;17.10;99.90;;;;;;5128753;27;20372;-73